sensor_id;sensor_type;location;lat;lon;timestamp;P1;durP1;ratioP1;P2;durP2;ratioP2
48268;SDS011;34088;52.232;5.196;2023-05-16T00:01:05;18.52;;;2.83;;
48268;SDS011;34088;52.232;5.196;2023-05-16T00:03:32;17.30;;;2.47;;
48268;SDS011;34088;52.232;5.196;2023-05-16T00:05:58;12.75;;;2.50;;
48268;SDS011;34088;52.232;5.196;2023-05-16T00:08:26;15.52;;;2.20;;
48268;SDS011;34088;52.232;5.196;2023-05-16T00:10:52;12.52;;;2.72;;
48268;SDS011;34088;52.232;5.196;2023-05-16T00:13:18;14.43;;;2.38;;
48268;SDS011;34088;52.232;5.196;2023-05-16T00:15:48;13.63;;;2.42;;
48268;SDS011;34088;52.232;5.196;2023-05-16T00:18:16;16.15;;;2.58;;
48268;SDS011;34088;52.232;5.196;2023-05-16T00:32:48;15.32;;;2.75;;
48268;SDS011;34088;52.232;5.196;2023-05-16T00:35:14;13.40;;;2.22;;
48268;SDS011;34088;52.232;5.196;2023-05-16T00:37:39;12.90;;;2.30;;
48268;SDS011;34088;52.232;5.196;2023-05-16T00:40:05;21.05;;;2.97;;
48268;SDS011;34088;52.232;5.196;2023-05-16T00:42:31;15.52;;;2.90;;
48268;SDS011;34088;52.232;5.196;2023-05-16T00:44:57;15.82;;;2.38;;
48268;SDS011;34088;52.232;5.196;2023-05-16T00:47:24;16.80;;;2.67;;
48268;SDS011;34088;52.232;5.196;2023-05-16T00:49:49;19.33;;;2.65;;
48268;SDS011;34088;52.232;5.196;2023-05-16T00:52:15;17.13;;;2.40;;
48268;SDS011;34088;52.232;5.196;2023-05-16T00:54:41;23.40;;;2.78;;
48268;SDS011;34088;52.232;5.196;2023-05-16T00:57:06;15.25;;;2.63;;
48268;SDS011;34088;52.232;5.196;2023-05-16T00:59:32;16.13;;;2.67;;
48268;SDS011;34088;52.232;5.196;2023-05-16T01:01:57;17.60;;;2.75;;
48268;SDS011;34088;52.232;5.196;2023-05-16T01:04:23;13.35;;;2.38;;
48268;SDS011;34088;52.232;5.196;2023-05-16T01:06:49;18.63;;;2.50;;
48268;SDS011;34088;52.232;5.196;2023-05-16T01:09:14;15.18;;;2.67;;
48268;SDS011;34088;52.232;5.196;2023-05-16T01:11:51;14.95;;;2.53;;
48268;SDS011;34088;52.232;5.196;2023-05-16T01:14:27;12.93;;;2.80;;
48268;SDS011;34088;52.232;5.196;2023-05-16T01:17:07;10.93;;;2.60;;
48268;SDS011;34088;52.232;5.196;2023-05-16T01:27:56;16.05;;;2.97;;
48268;SDS011;34088;52.232;5.196;2023-05-16T01:30:21;18.10;;;3.30;;
48268;SDS011;34088;52.232;5.196;2023-05-16T01:32:47;17.58;;;2.58;;
48268;SDS011;34088;52.232;5.196;2023-05-16T01:35:13;19.52;;;3.25;;
48268;SDS011;34088;52.232;5.196;2023-05-16T01:37:44;17.17;;;2.50;;
48268;SDS011;34088;52.232;5.196;2023-05-16T01:40:16;16.65;;;3.08;;
48268;SDS011;34088;52.232;5.196;2023-05-16T01:42:48;14.38;;;2.90;;
48268;SDS011;34088;52.232;5.196;2023-05-16T01:45:19;16.45;;;2.95;;
48268;SDS011;34088;52.232;5.196;2023-05-16T01:47:51;14.27;;;2.60;;
48268;SDS011;34088;52.232;5.196;2023-05-16T01:50:22;14.50;;;3.30;;
48268;SDS011;34088;52.232;5.196;2023-05-16T01:52:52;13.98;;;2.60;;
48268;SDS011;34088;52.232;5.196;2023-05-16T01:58:13;14.77;;;2.72;;
48268;SDS011;34088;52.232;5.196;2023-05-16T02:00:40;14.32;;;2.83;;
48268;SDS011;34088;52.232;5.196;2023-05-16T02:03:06;16.63;;;2.70;;
48268;SDS011;34088;52.232;5.196;2023-05-16T02:05:32;9.95;;;2.30;;
48268;SDS011;34088;52.232;5.196;2023-05-16T02:08:00;18.60;;;2.75;;
48268;SDS011;34088;52.232;5.196;2023-05-16T02:10:26;19.75;;;2.85;;
48268;SDS011;34088;52.232;5.196;2023-05-16T02:12:52;11.68;;;2.50;;
48268;SDS011;34088;52.232;5.196;2023-05-16T02:15:18;19.95;;;3.03;;
48268;SDS011;34088;52.232;5.196;2023-05-16T02:17:43;10.18;;;2.33;;
48268;SDS011;34088;52.232;5.196;2023-05-16T02:20:10;13.00;;;2.25;;
48268;SDS011;34088;52.232;5.196;2023-05-16T02:22:37;14.55;;;2.40;;
48268;SDS011;34088;52.232;5.196;2023-05-16T02:25:08;13.30;;;2.60;;
48268;SDS011;34088;52.232;5.196;2023-05-16T02:27:33;19.58;;;2.80;;
48268;SDS011;34088;52.232;5.196;2023-05-16T02:30:00;20.33;;;2.78;;
48268;SDS011;34088;52.232;5.196;2023-05-16T02:32:25;20.92;;;3.05;;
48268;SDS011;34088;52.232;5.196;2023-05-16T02:34:51;20.55;;;3.40;;
48268;SDS011;34088;52.232;5.196;2023-05-16T02:37:17;19.20;;;2.65;;
48268;SDS011;34088;52.232;5.196;2023-05-16T02:39:42;17.05;;;2.55;;
48268;SDS011;34088;52.232;5.196;2023-05-16T02:42:08;14.05;;;2.30;;
48268;SDS011;34088;52.232;5.196;2023-05-16T02:44:34;10.40;;;2.40;;
48268;SDS011;34088;52.232;5.196;2023-05-16T02:46:59;14.35;;;2.58;;
48268;SDS011;34088;52.232;5.196;2023-05-16T02:49:25;12.82;;;2.55;;
48268;SDS011;34088;52.232;5.196;2023-05-16T02:51:50;17.92;;;3.28;;
48268;SDS011;34088;52.232;5.196;2023-05-16T02:54:16;14.75;;;2.83;;
48268;SDS011;34088;52.232;5.196;2023-05-16T02:56:42;16.15;;;2.90;;
48268;SDS011;34088;52.232;5.196;2023-05-16T02:59:09;17.05;;;2.50;;
48268;SDS011;34088;52.232;5.196;2023-05-16T03:01:35;14.38;;;2.20;;
48268;SDS011;34088;52.232;5.196;2023-05-16T03:04:01;13.07;;;2.10;;
48268;SDS011;34088;52.232;5.196;2023-05-16T03:06:26;15.15;;;2.70;;
48268;SDS011;34088;52.232;5.196;2023-05-16T03:08:52;15.38;;;2.58;;
48268;SDS011;34088;52.232;5.196;2023-05-16T03:11:17;13.57;;;3.17;;
48268;SDS011;34088;52.232;5.196;2023-05-16T03:13:46;12.30;;;2.70;;
48268;SDS011;34088;52.232;5.196;2023-05-16T03:16:11;13.88;;;2.50;;
48268;SDS011;34088;52.232;5.196;2023-05-16T03:18:37;14.02;;;2.35;;
48268;SDS011;34088;52.232;5.196;2023-05-16T03:21:02;20.27;;;3.00;;
48268;SDS011;34088;52.232;5.196;2023-05-16T03:23:28;13.30;;;2.40;;
48268;SDS011;34088;52.232;5.196;2023-05-16T03:25:54;17.23;;;2.60;;
48268;SDS011;34088;52.232;5.196;2023-05-16T03:28:20;13.82;;;2.20;;
48268;SDS011;34088;52.232;5.196;2023-05-16T03:30:45;13.57;;;2.50;;
48268;SDS011;34088;52.232;5.196;2023-05-16T03:33:11;15.00;;;2.45;;
48268;SDS011;34088;52.232;5.196;2023-05-16T03:35:36;17.13;;;2.60;;
48268;SDS011;34088;52.232;5.196;2023-05-16T03:38:02;11.07;;;2.28;;
48268;SDS011;34088;52.232;5.196;2023-05-16T03:40:28;17.38;;;2.30;;
48268;SDS011;34088;52.232;5.196;2023-05-16T03:42:53;13.57;;;3.03;;
48268;SDS011;34088;52.232;5.196;2023-05-16T03:45:19;15.98;;;2.83;;
48268;SDS011;34088;52.232;5.196;2023-05-16T03:47:45;12.38;;;2.50;;
48268;SDS011;34088;52.232;5.196;2023-05-16T03:50:10;15.68;;;2.80;;
48268;SDS011;34088;52.232;5.196;2023-05-16T03:52:36;16.38;;;2.90;;
48268;SDS011;34088;52.232;5.196;2023-05-16T03:55:01;12.98;;;2.70;;
48268;SDS011;34088;52.232;5.196;2023-05-16T03:57:31;18.73;;;3.05;;
48268;SDS011;34088;52.232;5.196;2023-05-16T03:59:57;12.70;;;2.20;;
48268;SDS011;34088;52.232;5.196;2023-05-16T04:02:22;17.50;;;3.13;;
48268;SDS011;34088;52.232;5.196;2023-05-16T04:04:48;20.77;;;3.10;;
48268;SDS011;34088;52.232;5.196;2023-05-16T04:07:14;21.13;;;2.92;;
48268;SDS011;34088;52.232;5.196;2023-05-16T04:09:39;18.95;;;2.67;;
48268;SDS011;34088;52.232;5.196;2023-05-16T04:12:05;17.40;;;2.67;;
48268;SDS011;34088;52.232;5.196;2023-05-16T04:14:31;17.83;;;3.00;;
48268;SDS011;34088;52.232;5.196;2023-05-16T04:16:58;15.20;;;2.25;;
48268;SDS011;34088;52.232;5.196;2023-05-16T04:19:24;14.13;;;2.72;;
48268;SDS011;34088;52.232;5.196;2023-05-16T04:21:49;16.60;;;2.65;;
48268;SDS011;34088;52.232;5.196;2023-05-16T04:24:16;15.48;;;2.50;;
48268;SDS011;34088;52.232;5.196;2023-05-16T04:26:41;14.85;;;2.45;;
48268;SDS011;34088;52.232;5.196;2023-05-16T04:29:07;13.70;;;3.08;;
48268;SDS011;34088;52.232;5.196;2023-05-16T04:31:32;16.95;;;2.10;;
48268;SDS011;34088;52.232;5.196;2023-05-16T04:33:58;12.98;;;2.53;;
48268;SDS011;34088;52.232;5.196;2023-05-16T04:36:23;15.05;;;2.78;;
48268;SDS011;34088;52.232;5.196;2023-05-16T04:38:49;17.60;;;2.53;;
48268;SDS011;34088;52.232;5.196;2023-05-16T04:41:15;17.15;;;2.40;;
48268;SDS011;34088;52.232;5.196;2023-05-16T04:43:41;14.07;;;2.50;;
48268;SDS011;34088;52.232;5.196;2023-05-16T04:46:07;15.02;;;2.33;;
48268;SDS011;34088;52.232;5.196;2023-05-16T04:48:34;16.63;;;2.35;;
48268;SDS011;34088;52.232;5.196;2023-05-16T04:50:59;17.20;;;2.58;;
48268;SDS011;34088;52.232;5.196;2023-05-16T04:53:25;17.05;;;2.47;;
48268;SDS011;34088;52.232;5.196;2023-05-16T04:55:51;14.32;;;2.67;;
48268;SDS011;34088;52.232;5.196;2023-05-16T04:58:16;13.80;;;2.45;;
48268;SDS011;34088;52.232;5.196;2023-05-16T05:00:42;16.80;;;2.30;;
48268;SDS011;34088;52.232;5.196;2023-05-16T05:03:08;13.13;;;2.13;;
48268;SDS011;34088;52.232;5.196;2023-05-16T05:05:33;13.02;;;2.08;;
48268;SDS011;34088;52.232;5.196;2023-05-16T05:07:59;10.90;;;2.22;;
48268;SDS011;34088;52.232;5.196;2023-05-16T05:10:25;10.85;;;1.98;;
48268;SDS011;34088;52.232;5.196;2023-05-16T05:12:55;20.52;;;2.85;;
48268;SDS011;34088;52.232;5.196;2023-05-16T05:15:21;14.75;;;2.00;;
48268;SDS011;34088;52.232;5.196;2023-05-16T05:17:46;9.90;;;2.13;;
48268;SDS011;34088;52.232;5.196;2023-05-16T05:20:12;13.73;;;2.10;;
48268;SDS011;34088;52.232;5.196;2023-05-16T05:22:38;17.67;;;2.33;;
48268;SDS011;34088;52.232;5.196;2023-05-16T05:25:04;15.07;;;2.78;;
48268;SDS011;34088;52.232;5.196;2023-05-16T05:27:30;14.80;;;2.10;;
48268;SDS011;34088;52.232;5.196;2023-05-16T05:29:55;12.18;;;2.05;;
48268;SDS011;34088;52.232;5.196;2023-05-16T05:32:21;13.00;;;2.65;;
48268;SDS011;34088;52.232;5.196;2023-05-16T05:34:46;14.98;;;2.05;;
48268;SDS011;34088;52.232;5.196;2023-05-16T05:37:12;12.00;;;2.13;;
48268;SDS011;34088;52.232;5.196;2023-05-16T05:39:38;11.88;;;2.10;;
48268;SDS011;34088;52.232;5.196;2023-05-16T05:42:04;12.77;;;1.90;;
48268;SDS011;34088;52.232;5.196;2023-05-16T05:44:29;7.40;;;2.00;;
48268;SDS011;34088;52.232;5.196;2023-05-16T05:46:55;10.85;;;2.10;;
48268;SDS011;34088;52.232;5.196;2023-05-16T05:49:24;10.88;;;1.40;;
48268;SDS011;34088;52.232;5.196;2023-05-16T05:51:50;11.45;;;1.73;;
48268;SDS011;34088;52.232;5.196;2023-05-16T05:54:19;16.77;;;2.33;;
48268;SDS011;34088;52.232;5.196;2023-05-16T05:56:45;8.75;;;1.75;;
48268;SDS011;34088;52.232;5.196;2023-05-16T05:59:11;11.48;;;1.95;;
48268;SDS011;34088;52.232;5.196;2023-05-16T06:01:36;9.40;;;1.67;;
48268;SDS011;34088;52.232;5.196;2023-05-16T06:04:02;12.57;;;2.33;;
48268;SDS011;34088;52.232;5.196;2023-05-16T06:06:28;11.43;;;1.88;;
48268;SDS011;34088;52.232;5.196;2023-05-16T06:08:53;8.35;;;1.92;;
48268;SDS011;34088;52.232;5.196;2023-05-16T06:11:19;10.63;;;1.60;;
48268;SDS011;34088;52.232;5.196;2023-05-16T06:13:45;6.95;;;1.23;;
48268;SDS011;34088;52.232;5.196;2023-05-16T06:16:11;14.50;;;2.55;;
48268;SDS011;34088;52.232;5.196;2023-05-16T06:18:37;7.93;;;1.88;;
48268;SDS011;34088;52.232;5.196;2023-05-16T06:21:02;11.82;;;1.90;;
48268;SDS011;34088;52.232;5.196;2023-05-16T06:23:28;9.52;;;1.90;;
48268;SDS011;34088;52.232;5.196;2023-05-16T06:25:54;10.93;;;1.73;;
48268;SDS011;34088;52.232;5.196;2023-05-16T06:28:20;8.23;;;1.33;;
48268;SDS011;34088;52.232;5.196;2023-05-16T06:30:45;9.80;;;1.50;;
48268;SDS011;34088;52.232;5.196;2023-05-16T06:33:12;4.50;;;1.73;;
48268;SDS011;34088;52.232;5.196;2023-05-16T06:35:38;12.57;;;1.65;;
48268;SDS011;34088;52.232;5.196;2023-05-16T06:38:04;7.47;;;1.30;;
48268;SDS011;34088;52.232;5.196;2023-05-16T06:40:30;10.30;;;1.55;;
48268;SDS011;34088;52.232;5.196;2023-05-16T06:42:55;9.90;;;1.60;;
48268;SDS011;34088;52.232;5.196;2023-05-16T06:45:22;9.85;;;1.50;;
48268;SDS011;34088;52.232;5.196;2023-05-16T06:47:48;7.63;;;1.33;;
48268;SDS011;34088;52.232;5.196;2023-05-16T06:50:13;10.15;;;1.42;;
48268;SDS011;34088;52.232;5.196;2023-05-16T06:52:39;8.35;;;1.70;;
48268;SDS011;34088;52.232;5.196;2023-05-16T06:55:06;11.10;;;2.03;;
48268;SDS011;34088;52.232;5.196;2023-05-16T06:57:32;6.25;;;1.65;;
48268;SDS011;34088;52.232;5.196;2023-05-16T06:59:57;6.38;;;1.33;;
48268;SDS011;34088;52.232;5.196;2023-05-16T07:02:23;10.65;;;1.30;;
48268;SDS011;34088;52.232;5.196;2023-05-16T07:04:49;7.20;;;1.50;;
48268;SDS011;34088;52.232;5.196;2023-05-16T07:07:14;10.57;;;1.40;;
48268;SDS011;34088;52.232;5.196;2023-05-16T07:09:40;8.45;;;1.42;;
48268;SDS011;34088;52.232;5.196;2023-05-16T07:12:05;8.80;;;1.45;;
48268;SDS011;34088;52.232;5.196;2023-05-16T07:14:31;8.70;;;1.45;;
48268;SDS011;34088;52.232;5.196;2023-05-16T07:16:56;6.50;;;1.45;;
48268;SDS011;34088;52.232;5.196;2023-05-16T07:19:22;8.50;;;1.90;;
48268;SDS011;34088;52.232;5.196;2023-05-16T07:21:48;7.18;;;1.70;;
48268;SDS011;34088;52.232;5.196;2023-05-16T07:24:13;9.38;;;1.50;;
48268;SDS011;34088;52.232;5.196;2023-05-16T07:26:39;9.00;;;1.42;;
48268;SDS011;34088;52.232;5.196;2023-05-16T07:29:04;10.10;;;1.30;;
48268;SDS011;34088;52.232;5.196;2023-05-16T07:31:30;10.07;;;1.63;;
48268;SDS011;34088;52.232;5.196;2023-05-16T07:33:55;7.97;;;1.48;;
48268;SDS011;34088;52.232;5.196;2023-05-16T07:36:21;14.18;;;1.83;;
48268;SDS011;34088;52.232;5.196;2023-05-16T07:38:47;8.13;;;1.48;;
48268;SDS011;34088;52.232;5.196;2023-05-16T07:41:12;7.20;;;1.83;;
48268;SDS011;34088;52.232;5.196;2023-05-16T07:43:38;10.90;;;1.48;;
48268;SDS011;34088;52.232;5.196;2023-05-16T07:46:03;9.05;;;1.63;;
48268;SDS011;34088;52.232;5.196;2023-05-16T07:48:29;7.75;;;1.35;;
48268;SDS011;34088;52.232;5.196;2023-05-16T07:50:55;5.97;;;1.30;;
48268;SDS011;34088;52.232;5.196;2023-05-16T07:53:20;7.50;;;1.42;;
48268;SDS011;34088;52.232;5.196;2023-05-16T07:55:46;10.32;;;1.90;;
48268;SDS011;34088;52.232;5.196;2023-05-16T07:58:12;10.80;;;1.42;;
48268;SDS011;34088;52.232;5.196;2023-05-16T08:00:38;9.38;;;1.70;;
48268;SDS011;34088;52.232;5.196;2023-05-16T08:03:04;6.40;;;1.20;;
48268;SDS011;34088;52.232;5.196;2023-05-16T08:05:30;4.95;;;1.15;;
48268;SDS011;34088;52.232;5.196;2023-05-16T08:07:56;6.75;;;1.50;;
48268;SDS011;34088;52.232;5.196;2023-05-16T08:10:21;6.90;;;1.15;;
48268;SDS011;34088;52.232;5.196;2023-05-16T08:12:50;7.40;;;1.45;;
48268;SDS011;34088;52.232;5.196;2023-05-16T08:15:17;8.50;;;1.10;;
48268;SDS011;34088;52.232;5.196;2023-05-16T08:17:42;6.28;;;1.02;;
48268;SDS011;34088;52.232;5.196;2023-05-16T08:20:08;10.30;;;1.55;;
48268;SDS011;34088;52.232;5.196;2023-05-16T08:22:34;10.02;;;1.30;;
48268;SDS011;34088;52.232;5.196;2023-05-16T08:25:00;6.18;;;1.23;;
48268;SDS011;34088;52.232;5.196;2023-05-16T08:27:26;7.32;;;1.27;;
48268;SDS011;34088;52.232;5.196;2023-05-16T08:29:52;9.65;;;1.50;;
48268;SDS011;34088;52.232;5.196;2023-05-16T08:32:17;6.63;;;1.67;;
48268;SDS011;34088;52.232;5.196;2023-05-16T08:34:43;5.85;;;1.48;;
48268;SDS011;34088;52.232;5.196;2023-05-16T08:37:09;9.68;;;1.77;;
48268;SDS011;34088;52.232;5.196;2023-05-16T08:39:35;7.30;;;1.38;;
48268;SDS011;34088;52.232;5.196;2023-05-16T08:42:02;7.25;;;1.25;;
48268;SDS011;34088;52.232;5.196;2023-05-16T08:44:29;7.07;;;1.33;;
48268;SDS011;34088;52.232;5.196;2023-05-16T08:46:55;7.78;;;1.40;;
48268;SDS011;34088;52.232;5.196;2023-05-16T08:49:21;8.13;;;1.45;;
48268;SDS011;34088;52.232;5.196;2023-05-16T08:51:48;3.72;;;1.30;;
48268;SDS011;34088;52.232;5.196;2023-05-16T08:54:15;6.90;;;1.55;;
48268;SDS011;34088;52.232;5.196;2023-05-16T08:56:42;10.80;;;1.42;;
48268;SDS011;34088;52.232;5.196;2023-05-16T08:59:08;8.80;;;1.70;;
48268;SDS011;34088;52.232;5.196;2023-05-16T09:01:35;9.48;;;1.20;;
48268;SDS011;34088;52.232;5.196;2023-05-16T09:04:01;9.30;;;1.35;;
48268;SDS011;34088;52.232;5.196;2023-05-16T09:06:30;6.63;;;1.60;;
48268;SDS011;34088;52.232;5.196;2023-05-16T09:08:55;6.93;;;1.58;;
48268;SDS011;34088;52.232;5.196;2023-05-16T09:11:21;7.00;;;1.40;;
48268;SDS011;34088;52.232;5.196;2023-05-16T09:13:47;6.93;;;1.58;;
48268;SDS011;34088;52.232;5.196;2023-05-16T09:16:14;5.63;;;1.17;;
48268;SDS011;34088;52.232;5.196;2023-05-16T09:18:42;6.82;;;1.27;;
48268;SDS011;34088;52.232;5.196;2023-05-16T09:21:09;7.47;;;1.50;;
48268;SDS011;34088;52.232;5.196;2023-05-16T09:23:35;5.60;;;1.48;;
48268;SDS011;34088;52.232;5.196;2023-05-16T09:26:01;8.80;;;1.25;;
48268;SDS011;34088;52.232;5.196;2023-05-16T09:28:28;6.25;;;1.30;;
48268;SDS011;34088;52.232;5.196;2023-05-16T09:30:54;9.45;;;1.52;;
48268;SDS011;34088;52.232;5.196;2023-05-16T09:33:23;11.10;;;1.67;;
48268;SDS011;34088;52.232;5.196;2023-05-16T09:35:56;7.15;;;1.40;;
48268;SDS011;34088;52.232;5.196;2023-05-16T09:38:22;7.78;;;1.58;;
48268;SDS011;34088;52.232;5.196;2023-05-16T09:40:49;9.52;;;1.35;;
48268;SDS011;34088;52.232;5.196;2023-05-16T09:43:15;7.45;;;1.23;;
48268;SDS011;34088;52.232;5.196;2023-05-16T09:45:44;5.35;;;1.40;;
48268;SDS011;34088;52.232;5.196;2023-05-16T09:48:11;4.68;;;1.17;;
48268;SDS011;34088;52.232;5.196;2023-05-16T09:50:38;8.15;;;1.48;;
48268;SDS011;34088;52.232;5.196;2023-05-16T09:53:06;8.50;;;1.60;;
48268;SDS011;34088;52.232;5.196;2023-05-16T09:55:31;6.75;;;1.35;;
48268;SDS011;34088;52.232;5.196;2023-05-16T09:57:57;5.35;;;1.00;;
48268;SDS011;34088;52.232;5.196;2023-05-16T10:00:27;6.90;;;1.27;;
48268;SDS011;34088;52.232;5.196;2023-05-16T10:02:55;6.00;;;1.25;;
48268;SDS011;34088;52.232;5.196;2023-05-16T10:05:22;13.10;;;1.63;;
48268;SDS011;34088;52.232;5.196;2023-05-16T10:07:50;3.30;;;0.80;;
48268;SDS011;34088;52.232;5.196;2023-05-16T10:10:20;7.53;;;1.25;;
48268;SDS011;34088;52.232;5.196;2023-05-16T10:12:47;9.07;;;1.30;;
48268;SDS011;34088;52.232;5.196;2023-05-16T10:15:13;4.93;;;1.10;;
48268;SDS011;34088;52.232;5.196;2023-05-16T10:17:39;8.35;;;1.15;;
48268;SDS011;34088;52.232;5.196;2023-05-16T10:20:05;5.88;;;1.20;;
48268;SDS011;34088;52.232;5.196;2023-05-16T10:22:33;5.80;;;1.00;;
48268;SDS011;34088;52.232;5.196;2023-05-16T10:25:03;7.43;;;1.30;;
48268;SDS011;34088;52.232;5.196;2023-05-16T10:27:36;3.95;;;0.82;;
48268;SDS011;34088;52.232;5.196;2023-05-16T10:30:03;5.35;;;1.10;;
48268;SDS011;34088;52.232;5.196;2023-05-16T10:32:31;5.65;;;1.00;;
48268;SDS011;34088;52.232;5.196;2023-05-16T10:34:56;5.07;;;0.90;;
48268;SDS011;34088;52.232;5.196;2023-05-16T10:37:25;5.03;;;0.80;;
48268;SDS011;34088;52.232;5.196;2023-05-16T10:39:51;5.82;;;1.20;;
48268;SDS011;34088;52.232;5.196;2023-05-16T10:42:17;5.82;;;0.98;;
48268;SDS011;34088;52.232;5.196;2023-05-16T10:44:44;6.13;;;1.40;;
48268;SDS011;34088;52.232;5.196;2023-05-16T10:47:09;4.45;;;0.85;;
48268;SDS011;34088;52.232;5.196;2023-05-16T10:49:35;7.05;;;1.25;;
48268;SDS011;34088;52.232;5.196;2023-05-16T10:52:08;6.60;;;1.20;;
48268;SDS011;34088;52.232;5.196;2023-05-16T10:54:42;6.10;;;1.15;;
48268;SDS011;34088;52.232;5.196;2023-05-16T10:57:09;6.18;;;0.90;;
48268;SDS011;34088;52.232;5.196;2023-05-16T10:59:45;6.75;;;1.10;;
48268;SDS011;34088;52.232;5.196;2023-05-16T11:04:56;5.72;;;1.35;;
48268;SDS011;34088;52.232;5.196;2023-05-16T11:07:29;10.43;;;1.20;;
48268;SDS011;34088;52.232;5.196;2023-05-16T11:10:04;9.00;;;1.38;;
48268;SDS011;34088;52.232;5.196;2023-05-16T11:12:35;5.57;;;1.23;;
48268;SDS011;34088;52.232;5.196;2023-05-16T11:15:19;6.13;;;1.23;;
48268;SDS011;34088;52.232;5.196;2023-05-16T11:17:45;4.68;;;0.98;;
48268;SDS011;34088;52.232;5.196;2023-05-16T11:20:24;5.53;;;1.00;;
48268;SDS011;34088;52.232;5.196;2023-05-16T11:25:41;3.83;;;1.10;;
48268;SDS011;34088;52.232;5.196;2023-05-16T11:28:07;6.22;;;1.33;;
48268;SDS011;34088;52.232;5.196;2023-05-16T11:30:34;3.65;;;0.77;;
48268;SDS011;34088;52.232;5.196;2023-05-16T11:32:59;5.85;;;1.00;;
48268;SDS011;34088;52.232;5.196;2023-05-16T11:35:25;5.75;;;0.98;;
48268;SDS011;34088;52.232;5.196;2023-05-16T11:37:51;6.13;;;1.17;;
48268;SDS011;34088;52.232;5.196;2023-05-16T11:40:16;6.38;;;1.20;;
48268;SDS011;34088;52.232;5.196;2023-05-16T11:42:43;6.25;;;1.38;;
48268;SDS011;34088;52.232;5.196;2023-05-16T11:45:11;7.60;;;1.13;;
48268;SDS011;34088;52.232;5.196;2023-05-16T11:47:40;4.97;;;1.27;;
48268;SDS011;34088;52.232;5.196;2023-05-16T11:50:10;7.57;;;1.70;;
48268;SDS011;34088;52.232;5.196;2023-05-16T11:52:36;5.93;;;1.10;;
48268;SDS011;34088;52.232;5.196;2023-05-16T11:55:05;7.13;;;1.30;;
48268;SDS011;34088;52.232;5.196;2023-05-16T11:57:34;3.90;;;1.13;;
48268;SDS011;34088;52.232;5.196;2023-05-16T12:00:03;8.20;;;1.27;;
48268;SDS011;34088;52.232;5.196;2023-05-16T12:02:35;4.95;;;0.98;;
48268;SDS011;34088;52.232;5.196;2023-05-16T12:05:05;6.82;;;1.27;;
48268;SDS011;34088;52.232;5.196;2023-05-16T12:07:34;5.97;;;1.58;;
48268;SDS011;34088;52.232;5.196;2023-05-16T12:10:07;7.88;;;1.20;;
48268;SDS011;34088;52.232;5.196;2023-05-16T12:12:37;6.22;;;1.30;;
48268;SDS011;34088;52.232;5.196;2023-05-16T12:15:04;5.07;;;0.90;;
48268;SDS011;34088;52.232;5.196;2023-05-16T12:17:34;6.22;;;1.10;;
48268;SDS011;34088;52.232;5.196;2023-05-16T12:20:01;3.38;;;1.20;;
48268;SDS011;34088;52.232;5.196;2023-05-16T12:22:31;6.88;;;1.05;;
48268;SDS011;34088;52.232;5.196;2023-05-16T12:25:17;9.40;;;1.30;;
48268;SDS011;34088;52.232;5.196;2023-05-16T12:27:55;4.65;;;1.02;;
48268;SDS011;34088;52.232;5.196;2023-05-16T12:30:23;8.05;;;1.48;;
48268;SDS011;34088;52.232;5.196;2023-05-16T12:32:56;5.00;;;1.25;;
48268;SDS011;34088;52.232;5.196;2023-05-16T12:35:30;7.80;;;1.58;;
48268;SDS011;34088;52.232;5.196;2023-05-16T12:37:57;5.85;;;1.15;;
48268;SDS011;34088;52.232;5.196;2023-05-16T12:40:23;6.05;;;1.00;;
48268;SDS011;34088;52.232;5.196;2023-05-16T12:42:52;9.50;;;1.40;;
48268;SDS011;34088;52.232;5.196;2023-05-16T12:45:18;7.05;;;1.20;;
48268;SDS011;34088;52.232;5.196;2023-05-16T12:47:44;8.95;;;1.20;;
48268;SDS011;34088;52.232;5.196;2023-05-16T12:50:11;5.95;;;1.30;;
48268;SDS011;34088;52.232;5.196;2023-05-16T12:52:48;8.57;;;1.40;;
48268;SDS011;34088;52.232;5.196;2023-05-16T12:55:18;7.65;;;1.20;;
48268;SDS011;34088;52.232;5.196;2023-05-16T12:57:45;6.57;;;1.50;;
48268;SDS011;34088;52.232;5.196;2023-05-16T13:00:12;6.00;;;1.23;;
48268;SDS011;34088;52.232;5.196;2023-05-16T13:02:39;5.05;;;1.25;;
48268;SDS011;34088;52.232;5.196;2023-05-16T13:05:05;5.25;;;1.05;;
48268;SDS011;34088;52.232;5.196;2023-05-16T13:07:34;7.97;;;1.20;;
48268;SDS011;34088;52.232;5.196;2023-05-16T13:10:00;7.40;;;1.35;;
48268;SDS011;34088;52.232;5.196;2023-05-16T13:12:26;5.50;;;1.08;;
48268;SDS011;34088;52.232;5.196;2023-05-16T13:14:52;9.05;;;1.70;;
48268;SDS011;34088;52.232;5.196;2023-05-16T13:17:18;3.95;;;1.13;;
48268;SDS011;34088;52.232;5.196;2023-05-16T13:19:43;5.13;;;0.95;;
48268;SDS011;34088;52.232;5.196;2023-05-16T13:22:09;5.75;;;1.00;;
48268;SDS011;34088;52.232;5.196;2023-05-16T13:24:34;5.35;;;1.00;;
48268;SDS011;34088;52.232;5.196;2023-05-16T13:27:00;4.63;;;1.13;;
48268;SDS011;34088;52.232;5.196;2023-05-16T13:29:26;7.65;;;1.20;;
48268;SDS011;34088;52.232;5.196;2023-05-16T13:31:51;6.40;;;1.25;;
48268;SDS011;34088;52.232;5.196;2023-05-16T13:34:17;4.63;;;0.98;;
48268;SDS011;34088;52.232;5.196;2023-05-16T13:36:42;6.00;;;1.40;;
48268;SDS011;34088;52.232;5.196;2023-05-16T13:39:10;8.70;;;1.60;;
48268;SDS011;34088;52.232;5.196;2023-05-16T13:41:36;8.43;;;1.83;;
48268;SDS011;34088;52.232;5.196;2023-05-16T13:44:04;7.05;;;1.40;;
48268;SDS011;34088;52.232;5.196;2023-05-16T13:46:30;6.82;;;1.33;;
48268;SDS011;34088;52.232;5.196;2023-05-16T13:48:55;5.55;;;1.10;;
48268;SDS011;34088;52.232;5.196;2023-05-16T13:51:21;5.50;;;1.02;;
48268;SDS011;34088;52.232;5.196;2023-05-16T13:53:46;5.63;;;1.08;;
48268;SDS011;34088;52.232;5.196;2023-05-16T13:56:12;5.07;;;1.20;;
48268;SDS011;34088;52.232;5.196;2023-05-16T13:58:37;4.65;;;1.30;;
48268;SDS011;34088;52.232;5.196;2023-05-16T14:01:03;6.25;;;1.20;;
48268;SDS011;34088;52.232;5.196;2023-05-16T14:03:28;11.60;;;1.40;;
48268;SDS011;34088;52.232;5.196;2023-05-16T14:05:54;6.45;;;1.63;;
48268;SDS011;34088;52.232;5.196;2023-05-16T14:08:20;6.55;;;1.25;;
48268;SDS011;34088;52.232;5.196;2023-05-16T14:10:45;7.68;;;1.27;;
48268;SDS011;34088;52.232;5.196;2023-05-16T14:13:11;4.25;;;1.23;;
48268;SDS011;34088;52.232;5.196;2023-05-16T14:15:36;7.35;;;1.42;;
48268;SDS011;34088;52.232;5.196;2023-05-16T14:18:02;7.65;;;1.30;;
48268;SDS011;34088;52.232;5.196;2023-05-16T14:20:28;6.32;;;1.23;;
48268;SDS011;34088;52.232;5.196;2023-05-16T14:22:54;5.38;;;1.33;;
48268;SDS011;34088;52.232;5.196;2023-05-16T14:25:20;8.15;;;1.58;;
48268;SDS011;34088;52.232;5.196;2023-05-16T14:27:46;5.50;;;0.88;;
48268;SDS011;34088;52.232;5.196;2023-05-16T14:30:14;6.38;;;1.30;;
48268;SDS011;34088;52.232;5.196;2023-05-16T14:32:40;8.30;;;1.30;;
48268;SDS011;34088;52.232;5.196;2023-05-16T14:35:06;5.05;;;1.10;;
48268;SDS011;34088;52.232;5.196;2023-05-16T14:37:33;4.88;;;0.90;;
48268;SDS011;34088;52.232;5.196;2023-05-16T14:40:02;3.50;;;1.00;;
48268;SDS011;34088;52.232;5.196;2023-05-16T14:42:29;7.72;;;1.15;;
48268;SDS011;34088;52.232;5.196;2023-05-16T14:44:55;6.00;;;1.27;;
48268;SDS011;34088;52.232;5.196;2023-05-16T14:47:20;4.38;;;1.10;;
48268;SDS011;34088;52.232;5.196;2023-05-16T14:49:46;5.03;;;1.13;;
48268;SDS011;34088;52.232;5.196;2023-05-16T14:52:12;6.90;;;1.10;;
48268;SDS011;34088;52.232;5.196;2023-05-16T14:54:38;10.38;;;1.50;;
48268;SDS011;34088;52.232;5.196;2023-05-16T14:57:04;7.57;;;1.30;;
48268;SDS011;34088;52.232;5.196;2023-05-16T14:59:29;4.00;;;1.30;;
48268;SDS011;34088;52.232;5.196;2023-05-16T15:01:55;5.28;;;1.33;;
48268;SDS011;34088;52.232;5.196;2023-05-16T15:04:21;4.38;;;1.10;;
48268;SDS011;34088;52.232;5.196;2023-05-16T15:06:46;5.47;;;1.23;;